Time;durP1;ratioP1;P1;durP2;ratioP2;P2;SDS_P1;SDS_P2;PMS_P1;PMS_P2;Temp;Humidity;BMP_temperature;BMP_pressure;BME280_temperature;BME280_humidity;BME280_pressure;Samples;Min_cycle;Max_cycle;Signal;HPM_P1;HPM_P2
2021/12/30 00:02:21;;;;;;;47.95;12.05;;;;;;;10.15;100.00;101046.03;10521615;28;20119;-72
2021/12/30 00:07:21;;;;;;;48.38;14.15;;;;;;;10.16;100.00;101046.84;10504531;28;20078;-72
2021/12/30 00:12:22;;;;;;;53.67;13.85;;;;;;;10.22;100.00;101043.38;10504832;28;20044;-72
2021/12/30 00:17:22;;;;;;;37.05;12.45;;;;;;;10.30;100.00;101043.28;10504554;28;20430;-72
2021/12/30 00:22:23;;;;;;;36.75;14.13;;;;;;;10.34;100.00;101041.88;10504532;28;20079;-72
2021/12/30 00:27:24;;;;;;;39.85;10.68;;;;;;;10.46;100.00;101039.47;10521015;28;20032;-72
2021/12/30 00:32:24;;;;;;;61.33;12.48;;;;;;;10.58;100.00;101039.81;10504695;28;20487;-72
2021/12/30 00:37:24;;;;;;;28.73;9.38;;;;;;;10.67;100.00;101023.22;10502543;28;20042;-73
2021/12/30 00:42:25;;;;;;;28.70;9.40;;;;;;;10.78;100.00;101048.94;10503220;28;20460;-72
2021/12/30 00:47:25;;;;;;;35.08;10.05;;;;;;;10.85;100.00;101049.84;10503671;28;20121;-73
2021/12/30 00:52:26;;;;;;;33.50;10.77;;;;;;;10.90;100.00;101062.81;10503024;28;20056;-72
2021/12/30 00:57:26;;;;;;;35.95;12.80;;;;;;;10.96;100.00;101061.19;10501902;28;20063;-72
2021/12/30 01:02:26;;;;;;;18.98;8.88;;;;;;;11.00;100.00;101047.03;10502666;28;20487;-72
2021/12/30 01:07:27;;;;;;;15.13;10.73;;;;;;;11.04;100.00;101061.03;10504128;28;20040;-72
2021/12/30 01:12:28;;;;;;;29.15;14.57;;;;;;;11.07;100.00;101044.38;10503119;28;20040;-72
2021/12/30 01:17:42;;;;;;;32.35;12.93;;;;;;;11.08;100.00;101035.22;10484973;28;20386;-73
2021/12/30 01:22:43;;;;;;;22.60;12.95;;;;;;;11.00;100.00;101044.31;10502528;28;20072;-73
2021/12/30 01:27:43;;;;;;;41.58;15.32;;;;;;;10.99;100.00;101055.38;10502317;28;20064;-74
2021/12/30 01:32:44;;;;;;;28.70;14.80;;;;;;;10.97;100.00;101058.28;10485351;28;20050;-76
2021/12/30 01:37:44;;;;;;;26.45;11.88;;;;;;;11.04;100.00;101085.41;10501755;28;20127;-76
2021/12/30 01:42:45;;;;;;;23.92;11.50;;;;;;;11.06;100.00;101086.91;10503901;28;20040;-76
2021/12/30 01:47:53;;;;;;;17.13;10.45;;;;;;;11.15;100.00;101093.03;10502211;28;20106;-76
2021/12/30 01:52:54;;;;;;;34.25;10.52;;;;;;;11.16;100.00;101092.81;10501682;28;20052;-76
2021/12/30 01:57:54;;;;;;;16.00;9.48;;;;;;;11.20;100.00;101089.72;10483683;28;20456;-76
2021/12/30 02:02:55;;;;;;;16.48;8.27;;;;;;;11.20;100.00;101085.16;10500265;28;20086;-76
2021/12/30 02:07:55;;;;;;;14.55;7.75;;;;;;;11.22;100.00;101083.06;10518032;28;20032;-76
2021/12/30 02:12:56;;;;;;;14.23;8.10;;;;;;;11.25;100.00;101093.50;10500567;28;20039;-76
2021/12/30 02:17:56;;;;;;;6.20;5.63;;;;;;;11.31;100.00;101089.19;10516457;28;20025;-76
2021/12/30 02:22:57;;;;;;;11.85;6.43;;;;;;;11.28;100.00;101079.56;10501123;28;20037;-76
2021/12/30 02:27:57;;;;;;;7.65;6.70;;;;;;;11.30;100.00;101088.34;10499720;28;20047;-76
2021/12/30 02:32:57;;;;;;;7.93;5.97;;;;;;;11.34;100.00;101113.19;10500683;28;20044;-77
2021/12/30 02:37:58;;;;;;;16.98;6.50;;;;;;;11.34;100.00;101119.44;10515091;28;20115;-77
2021/12/30 02:42:59;;;;;;;12.23;5.68;;;;;;;11.39;100.00;101127.84;10483772;28;20032;-76
2021/12/30 02:47:59;;;;;;;5.78;5.20;;;;;;;11.41;100.00;101123.03;10500164;28;20492;-77
2021/12/30 02:53:00;;;;;;;13.18;7.50;;;;;;;11.46;100.00;101127.88;10500417;28;20037;-77
2021/12/30 02:58:00;;;;;;;10.63;6.95;;;;;;;11.44;100.00;101112.84;10503265;28;20033;-76
2021/12/30 03:03:00;;;;;;;8.60;7.50;;;;;;;11.47;100.00;101112.44;10504796;28;20079;-77
2021/12/30 03:08:01;;;;;;;19.38;8.00;;;;;;;11.50;100.00;101112.06;10502563;28;20082;-77
2021/12/30 03:13:07;;;;;;;15.43;8.15;;;;;;;11.46;100.00;101110.78;10502894;28;20087;-76
2021/12/30 03:18:08;;;;;;;13.95;7.22;;;;;;;11.43;100.00;101113.88;10501396;28;20086;-76
2021/12/30 03:23:08;;;;;;;9.27;7.03;;;;;;;11.40;100.00;101118.66;10480757;28;20024;-76
2021/12/30 03:28:08;;;;;;;17.88;8.38;;;;;;;11.41;100.00;101131.19;10498640;28;20037;-76
2021/12/30 03:33:09;;;;;;;15.85;7.47;;;;;;;11.37;100.00;101113.63;10499356;28;20467;-76
2021/12/30 03:38:09;;;;;;;14.38;8.10;;;;;;;11.39;100.00;101116.13;10496672;28;20047;-76
2021/12/30 03:43:10;;;;;;;14.73;7.82;;;;;;;11.44;100.00;101138.09;10499239;28;20043;-76
2021/12/30 03:48:11;;;;;;;13.73;7.15;;;;;;;11.40;100.00;101124.09;10480440;28;20049;-77
2021/12/30 03:53:12;;;;;;;17.58;7.40;;;;;;;11.43;100.00;101131.00;10497792;28;20051;-76
2021/12/30 03:58:12;;;;;;;18.73;8.82;;;;;;;11.42;100.00;101121.16;10480241;28;20111;-77
2021/12/30 04:03:13;;;;;;;13.23;9.07;;;;;;;11.45;100.00;101114.50;10498790;28;20469;-76
2021/12/30 04:08:13;;;;;;;16.90;7.57;;;;;;;11.44;100.00;101113.69;10496723;28;20036;-76
2021/12/30 04:13:13;;;;;;;9.57;7.88;;;;;;;11.44;100.00;101134.53;10496780;28;20036;-76
2021/12/30 04:18:14;;;;;;;19.67;6.07;;;;;;;11.42;100.00;101137.44;10497905;28;20037;-76
2021/12/30 04:23:14;;;;;;;15.88;6.15;;;;;;;11.45;100.00;101147.06;10496696;28;20052;-77
2021/12/30 04:28:16;;;;;;;20.70;7.18;;;;;;;11.47;100.00;101151.25;10513211;28;20035;-76
2021/12/30 04:33:16;;;;;;;7.70;5.07;;;;;;;11.44;100.00;101142.66;10498661;28;20036;-76
2021/12/30 04:38:16;;;;;;;14.15;7.32;;;;;;;11.42;100.00;101145.56;10503399;28;20111;-77
2021/12/30 04:43:17;;;;;;;27.58;7.70;;;;;;;11.36;100.00;101143.66;10503642;28;20139;-76
2021/12/30 04:48:17;;;;;;;11.45;6.03;;;;;;;11.34;100.00;101134.88;10503315;28;20102;-77
2021/12/30 04:53:18;;;;;;;14.10;7.75;;;;;;;11.31;100.00;101136.09;10504439;28;20067;-76
2021/12/30 04:58:19;;;;;;;14.70;4.78;;;;;;;11.26;100.00;101133.13;10504288;28;20028;-76
2021/12/30 05:03:21;;;;;;;10.10;5.20;;;;;;;11.29;100.00;101132.75;10519743;28;20041;-76
2021/12/30 05:08:23;;;;;;;13.38;4.78;;;;;;;11.32;100.00;101129.63;10503911;28;20159;-76
2021/12/30 05:13:23;;;;;;;11.57;4.97;;;;;;;11.35;100.00;101147.41;10502547;28;20036;-76
2021/12/30 05:18:30;;;;;;;7.15;4.28;;;;;;;11.33;100.00;101149.47;10502494;28;20072;-76
2021/12/30 05:23:31;;;;;;;9.45;4.07;;;;;;;11.30;100.00;101153.41;10504315;28;20455;-76
2021/12/30 05:28:31;;;;;;;11.57;4.78;;;;;;;11.34;100.00;101153.84;10519542;28;20040;-76
2021/12/30 05:33:32;;;;;;;9.95;3.88;;;;;;;11.39;100.00;101160.38;10506257;28;20036;-76
2021/12/30 05:38:32;;;;;;;17.65;5.38;;;;;;;11.48;100.00;101143.94;10505295;28;20491;-76
2021/12/30 05:43:33;;;;;;;15.48;4.55;;;;;;;11.58;100.00;101149.84;10503811;28;20033;-76
2021/12/30 05:48:33;;;;;;;10.93;4.57;;;;;;;11.66;100.00;101163.28;10503230;28;20083;-76
2021/12/30 05:53:35;;;;;;;11.85;4.10;;;;;;;11.72;100.00;101176.06;10503731;28;20044;-75
2021/12/30 05:58:35;;;;;;;18.10;3.35;;;;;;;11.78;100.00;101169.84;10502111;28;20032;-76
2021/12/30 06:03:35;;;;;;;3.95;3.42;;;;;;;11.83;100.00;101180.91;10501894;28;20089;-76
2021/12/30 06:08:37;;;;;;;14.40;3.47;;;;;;;11.84;100.00;101190.78;10501417;28;20039;-75
2021/12/30 06:13:37;;;;;;;7.93;3.40;;;;;;;11.88;100.00;101185.78;10501407;28;20032;-75
2021/12/30 06:18:37;;;;;;;4.10;3.58;;;;;;;11.86;100.00;101204.97;10516068;28;20093;-76
2021/12/30 06:23:38;;;;;;;9.60;4.63;;;;;;;11.78;100.00;101217.84;10499816;28;20043;-75
2021/12/30 06:28:38;;;;;;;9.48;4.63;;;;;;;11.74;100.00;101197.53;10501053;28;20515;-75
2021/12/30 06:33:39;;;;;;;17.77;5.43;;;;;;;11.73;100.00;101210.28;10516217;28;20048;-76
2021/12/30 06:38:40;;;;;;;11.70;6.10;;;;;;;11.64;100.00;101203.31;10515917;28;20028;-76
2021/12/30 06:43:41;;;;;;;6.63;4.22;;;;;;;11.58;100.00;101226.66;10500808;28;20064;-76
2021/12/30 06:48:44;;;;;;;5.75;3.67;;;;;;;11.51;100.00;101233.88;10517949;28;20059;-76
2021/12/30 06:53:46;;;;;;;7.05;4.32;;;;;;;11.46;100.00;101233.66;10501843;28;20041;-76
2021/12/30 06:58:46;;;;;;;15.95;5.38;;;;;;;11.46;100.00;101230.94;10515124;28;20039;-76
2021/12/30 07:03:46;;;;;;;17.02;6.95;;;;;;;11.37;100.00;101241.06;10515143;28;20101;-75
2021/12/30 07:08:47;;;;;;;17.55;9.00;;;;;;;11.33;100.00;101237.06;10464572;28;20040;-75
2021/12/30 07:13:47;;;;;;;19.52;7.53;;;;;;;11.30;100.00;101236.63;10499024;28;20115;-75
2021/12/30 07:18:48;;;;;;;23.35;8.82;;;;;;;11.31;100.00;101241.00;10499878;28;20063;-76
2021/12/30 07:23:48;;;;;;;24.33;8.52;;;;;;;11.24;100.00;101248.25;10498811;28;20040;-76
2021/12/30 07:28:48;;;;;;;25.52;11.02;;;;;;;11.21;100.00;101245.94;10482373;28;20119;-75
2021/12/30 07:33:49;;;;;;;26.90;9.18;;;;;;;11.17;100.00;101278.84;10499717;28;20033;-76
2021/12/30 07:38:49;;;;;;;28.95;10.73;;;;;;;11.15;100.00;101269.22;10498912;28;20429;-76
2021/12/30 07:43:50;;;;;;;24.77;10.68;;;;;;;11.11;100.00;101293.16;10498231;28;20040;-76
2021/12/30 07:48:50;;;;;;;30.58;9.95;;;;;;;11.14;100.00;101300.91;10497452;28;20166;-76
2021/12/30 07:53:50;;;;;;;27.45;10.43;;;;;;;11.20;100.00;101310.16;10499371;28;20040;-79
2021/12/30 07:58:51;;;;;;;29.95;10.00;;;;;;;11.28;100.00;101315.44;10514159;28;20078;-77
2021/12/30 08:03:51;;;;;;;41.80;8.05;;;;;;;11.28;100.00;101304.59;10502667;28;20024;-77
2021/12/30 08:08:51;;;;;;;28.65;10.50;;;;;;;11.26;100.00;101306.63;10501710;28;20116;-76
2021/12/30 08:13:52;;;;;;;39.63;11.07;;;;;;;11.26;100.00;101312.06;10505713;28;20067;-75
2021/12/30 08:18:52;;;;;;;62.58;12.65;;;;;;;11.31;100.00;101306.09;10521092;28;20040;-76
2021/12/30 08:23:53;;;;;;;31.67;12.23;;;;;;;11.34;100.00;101320.09;10505936;28;20111;-76
2021/12/30 08:28:53;;;;;;;48.35;11.75;;;;;;;11.37;100.00;101333.25;10505715;28;20432;-76
2021/12/30 08:33:54;;;;;;;38.85;11.73;;;;;;;11.34;100.00;101330.94;10503067;28;20043;-76
2021/12/30 08:38:55;;;;;;;38.35;13.77;;;;;;;11.37;100.00;101346.00;10505171;28;20033;-77
2021/12/30 08:43:55;;;;;;;21.58;8.43;;;;;;;11.39;100.00;101338.47;10487327;28;20075;-77
2021/12/30 08:48:56;;;;;;;39.63;9.73;;;;;;;11.39;100.00;101335.75;10503114;28;20072;-77
2021/12/30 08:53:57;;;;;;;40.90;10.15;;;;;;;11.42;100.00;101343.53;10504241;28;20037;-76
2021/12/30 08:58:57;;;;;;;31.08;10.02;;;;;;;11.50;100.00;101345.28;10502879;28;20033;-77
2021/12/30 09:03:57;;;;;;;26.38;9.90;;;;;;;11.57;100.00;101344.31;10503478;28;20501;-76
2021/12/30 09:08:58;;;;;;;44.60;8.98;;;;;;;11.71;100.00;101361.59;10519809;28;20041;-76
2021/12/30 09:13:58;;;;;;;23.77;8.50;;;;;;;11.78;100.00;101343.47;10502682;28;20039;-81
2021/12/30 09:18:58;;;;;;;21.75;8.98;;;;;;;11.81;100.00;101337.66;10502574;28;20079;-75
2021/12/30 09:23:59;;;;;;;44.47;9.88;;;;;;;11.78;100.00;101351.63;10502478;28;20040;-75
2021/12/30 09:29:00;;;;;;;27.65;9.55;;;;;;;11.82;100.00;101363.75;10502049;28;20472;-75
2021/12/30 09:34:00;;;;;;;41.05;10.35;;;;;;;11.74;100.00;101366.63;10502619;28;20054;-75
2021/12/30 09:39:00;;;;;;;27.80;10.18;;;;;;;11.65;100.00;101362.34;10502750;28;20468;-75
2021/12/30 09:44:01;;;;;;;35.95;8.68;;;;;;;11.64;100.00;101398.63;10501997;28;20036;-75
2021/12/30 09:49:02;;;;;;;49.92;10.55;;;;;;;11.70;100.00;101410.59;10501989;28;20055;-75
2021/12/30 09:54:03;;;;;;;32.60;7.25;;;;;;;11.74;100.00;101396.47;10501121;28;20093;-76
2021/12/30 09:59:04;;;;;;;28.95;7.20;;;;;;;11.81;100.00;101396.53;10501377;28;20431;-75
2021/12/30 10:04:05;;;;;;;31.10;7.53;;;;;;;11.91;100.00;101396.25;10499981;28;20118;-76
2021/12/30 10:09:11;;;;;;;13.18;6.90;;;;;;;11.93;100.00;101373.28;10516589;28;20036;-76
2021/12/30 10:14:12;;;;;;;24.57;7.30;;;;;;;11.95;100.00;101392.94;10502278;28;20075;-76
2021/12/30 10:19:12;;;;;;;37.70;9.40;;;;;;;11.91;100.00;101385.38;10499507;28;20021;-75
2021/12/30 10:24:13;;;;;;;38.05;8.63;;;;;;;11.88;100.00;101393.91;10501334;28;20036;-76
2021/12/30 10:29:13;;;;;;;29.20;8.52;;;;;;;11.81;100.00;101386.50;10502563;28;20123;-76
2021/12/30 10:34:16;;;;;;;23.25;7.32;;;;;;;11.74;100.00;101391.03;10501208;28;20035;-75
2021/12/30 10:39:28;;;;;;;14.70;6.03;;;;;;;11.83;100.00;101395.28;10499287;28;20067;-75
2021/12/30 10:44:51;;;;;;;16.50;5.70;;;;;;;11.78;100.00;101392.31;10502225;28;20032;-75
2021/12/30 10:50:10;;;;;;;15.90;6.47;;;;;;;11.97;100.00;101390.88;10518500;28;20093;-76
2021/12/30 10:55:11;;;;;;;24.33;5.68;;;;;;;12.01;100.00;101404.88;10504770;28;20529;-75
2021/12/30 11:00:30;;;;;;;16.10;5.55;;;;;;;11.99;100.00;101401.50;10514817;28;20047;-75
2021/12/30 11:05:30;;;;;;;21.85;8.57;;;;;;;12.01;100.00;101402.19;10499888;28;20116;-75
2021/12/30 11:10:33;;;;;;;20.67;6.10;;;;;;;11.99;100.00;101415.09;10499052;28;20032;-75
2021/12/30 11:15:34;;;;;;;15.95;7.70;;;;;;;12.09;100.00;101438.19;10481010;28;20025;-75
2021/12/30 11:20:39;;;;;;;23.15;7.28;;;;;;;12.00;100.00;101443.94;10481775;28;20523;-75
2021/12/30 11:25:39;;;;;;;14.80;6.40;;;;;;;11.98;100.00;101437.84;10497570;28;20037;-76
2021/12/30 11:30:40;;;;;;;23.73;5.57;;;;;;;11.99;100.00;101442.22;10498381;28;20041;-75
2021/12/30 11:35:40;;;;;;;22.65;5.70;;;;;;;12.06;100.00;101440.41;10498991;28;20055;-75
2021/12/30 11:40:41;;;;;;;18.77;7.47;;;;;;;12.12;100.00;101431.50;10515369;28;20028;-76
2021/12/30 11:45:42;;;;;;;27.70;6.00;;;;;;;12.05;100.00;101430.59;10431720;28;20084;-76
2021/12/30 11:50:42;;;;;;;17.50;6.25;;;;;;;12.07;100.00;101440.25;10437771;28;20551;-76
2021/12/30 11:55:59;;;;;;;11.80;5.32;;;;;;;12.09;100.00;101440.03;10464953;28;20124;-76
2021/12/30 12:01:12;;;;;;;19.63;5.30;;;;;;;12.09;100.00;101431.88;10464085;28;20028;-78
2021/12/30 12:06:25;;;;;;;25.80;5.80;;;;;;;12.04;100.00;101410.75;10463896;28;20025;-75
2021/12/30 12:11:27;;;;;;;15.15;5.03;;;;;;;12.10;100.00;101415.41;10464632;28;20444;-75
2021/12/30 12:16:48;;;;;;;20.85;6.32;;;;;;;12.14;100.00;101418.56;10462750;28;20226;-75
2021/12/30 12:21:52;;;;;;;19.73;5.30;;;;;;;12.21;100.00;101427.63;10462629;28;20059;-75
2021/12/30 12:26:57;;;;;;;13.82;6.38;;;;;;;12.21;100.00;101429.50;10462053;28;20040;-76
2021/12/30 12:32:10;;;;;;;21.33;5.85;;;;;;;12.27;100.00;101428.72;10461603;28;20400;-75
2021/12/30 12:37:29;;;;;;;17.00;6.70;;;;;;;12.27;100.00;101429.56;10463969;28;20087;-76
2021/12/30 12:42:51;;;;;;;25.83;8.88;;;;;;;12.27;100.00;101434.97;10462471;28;20361;-74
2021/12/30 12:53:29;;;;;;;18.75;5.15;;;;;;;12.28;100.00;101423.09;10462574;28;20051;-75
2021/12/30 12:58:34;;;;;;;27.15;7.85;;;;;;;12.22;100.00;101423.03;10461608;28;20044;-75
2021/12/30 13:03:38;;;;;;;40.72;9.13;;;;;;;12.10;100.00;101433.59;10462952;28;20445;-75
2021/12/30 13:08:39;;;;;;;25.85;6.95;;;;;;;12.07;100.00;101410.38;10463477;28;20095;-75
2021/12/30 13:13:42;;;;;;;13.90;4.90;;;;;;;12.15;100.00;101422.97;10460923;28;20025;-74
2021/12/30 13:18:42;;;;;;;24.40;7.30;;;;;;;12.13;100.00;101419.63;10461633;28;20096;-74
2021/12/30 13:23:42;;;;;;;13.52;5.20;;;;;;;12.17;100.00;101420.91;10463566;28;20029;-74
2021/12/30 13:28:47;;;;;;;20.33;6.03;;;;;;;12.18;100.00;101422.56;10444661;28;20040;-75
2021/12/30 13:33:55;;;;;;;24.35;5.20;;;;;;;12.11;100.00;101421.69;10460698;28;20044;-74
2021/12/30 13:39:09;;;;;;;7.78;4.32;;;;;;;12.10;100.00;101429.00;10461533;28;20345;-74
2021/12/30 13:44:10;;;;;;;22.83;5.90;;;;;;;12.07;100.00;101439.41;10460179;28;20033;-74
2021/12/30 13:49:10;;;;;;;19.42;8.07;;;;;;;12.11;100.00;101435.25;10460804;28;20079;-75
2021/12/30 13:54:11;;;;;;;16.02;6.53;;;;;;;12.05;100.00;101447.72;10460482;28;20033;-73
2021/12/30 13:59:11;;;;;;;17.48;7.18;;;;;;;12.00;100.00;101447.47;10458320;28;20035;-75
2021/12/30 14:04:16;;;;;;;10.23;5.70;;;;;;;11.96;100.00;101453.47;10460263;28;20120;-75
2021/12/30 14:09:17;;;;;;;27.23;7.57;;;;;;;11.94;100.00;101458.28;10463562;28;20461;-75
2021/12/30 14:14:25;;;;;;;12.82;6.60;;;;;;;11.97;100.00;101458.72;10464287;28;20029;-75
2021/12/30 14:19:39;;;;;;;8.65;4.88;;;;;;;11.93;100.00;101460.13;10459408;28;20036;-74
2021/12/30 14:24:40;;;;;;;16.92;6.25;;;;;;;11.91;100.00;101462.22;10458327;28;20107;-75
2021/12/30 14:29:40;;;;;;;24.38;7.03;;;;;;;11.90;100.00;101475.94;10459755;28;20040;-73
2021/12/30 14:34:45;;;;;;;12.13;6.75;;;;;;;11.80;100.00;101477.06;10458043;28;20033;-73
2021/12/30 14:39:45;;;;;;;20.38;6.05;;;;;;;11.81;100.00;101480.66;10458025;28;20031;-74
2021/12/30 14:44:52;;;;;;;6.93;5.07;;;;;;;11.89;100.00;101507.69;10457105;28;20124;-73
2021/12/30 14:50:02;;;;;;;14.23;6.07;;;;;;;11.89;100.00;101512.28;10458401;28;20048;-74
2021/12/30 14:55:13;;;;;;;16.05;6.13;;;;;;;11.94;100.00;101510.69;10456758;28;20488;-74
2021/12/30 15:00:21;;;;;;;16.30;6.38;;;;;;;11.89;100.00;101520.41;10456279;28;20453;-73
2021/12/30 15:05:23;;;;;;;16.13;5.32;;;;;;;11.89;100.00;101531.28;10457571;28;20513;-74
2021/12/30 15:10:23;;;;;;;11.45;5.35;;;;;;;11.94;100.00;101521.53;10439972;28;20024;-73
2021/12/30 15:15:27;;;;;;;18.55;8.15;;;;;;;11.93;100.00;101536.13;10457606;28;20052;-74
2021/12/30 15:20:29;;;;;;;12.00;5.72;;;;;;;11.94;100.00;101548.69;10456724;28;20112;-74
2021/12/30 15:25:30;;;;;;;26.85;7.07;;;;;;;11.96;100.00;101545.75;10456139;28;20400;-74
2021/12/30 15:30:31;;;;;;;15.77;7.20;;;;;;;11.92;100.00;101547.19;10455958;28;20040;-74
2021/12/30 15:35:32;;;;;;;12.32;7.30;;;;;;;11.88;100.00;101559.47;10402388;28;20110;-74
2021/12/30 15:40:32;;;;;;;16.55;4.88;;;;;;;11.87;100.00;101564.03;10473932;28;20111;-74
2021/12/30 15:45:33;;;;;;;21.15;7.82;;;;;;;11.86;100.00;101579.47;10522573;28;20035;-74
2021/12/30 15:50:33;;;;;;;33.78;7.80;;;;;;;11.82;100.00;101580.84;10504343;28;20139;-74
2021/12/30 15:55:36;;;;;;;21.73;7.13;;;;;;;11.79;100.00;101594.78;10539904;28;20086;-74
2021/12/30 16:00:36;;;;;;;20.27;9.18;;;;;;;11.79;100.00;101578.50;10522260;28;20028;-74
2021/12/30 16:05:37;;;;;;;31.65;9.90;;;;;;;11.72;100.00;101593.03;10542638;28;20044;-74
2021/12/30 16:10:38;;;;;;;27.70;10.00;;;;;;;11.74;100.00;101605.38;10540388;28;20465;-74
2021/12/30 16:15:39;;;;;;;11.80;7.45;;;;;;;11.70;100.00;101612.19;10539967;28;20093;-73
2021/12/30 16:20:39;;;;;;;15.75;7.88;;;;;;;11.75;100.00;101620.63;10539242;28;20060;-73
2021/12/30 16:25:40;;;;;;;15.85;7.00;;;;;;;11.76;100.00;101616.88;10539275;28;20039;-73
2021/12/30 16:30:40;;;;;;;19.35;7.25;;;;;;;11.84;100.00;101611.41;10540185;28;20035;-73
2021/12/30 16:35:41;;;;;;;19.42;8.10;;;;;;;11.90;100.00;101604.38;10546240;28;20048;-73
2021/12/30 16:40:41;;;;;;;18.73;7.00;;;;;;;11.90;100.00;101619.78;10528907;28;20039;-73
2021/12/30 16:45:42;;;;;;;28.55;8.65;;;;;;;11.93;100.00;101619.41;10511416;28;20036;-73
2021/12/30 16:50:43;;;;;;;29.30;8.52;;;;;;;11.94;100.00;101596.69;10544707;28;20075;-73
2021/12/30 16:55:44;;;;;;;31.30;7.75;;;;;;;11.90;100.00;101606.22;10527930;28;20093;-73
2021/12/30 17:00:44;;;;;;;10.50;5.30;;;;;;;11.97;100.00;101621.59;10527706;28;20349;-73
2021/12/30 17:05:45;;;;;;;13.45;5.57;;;;;;;11.99;100.00;101610.53;10545683;28;20032;-73
2021/12/30 17:10:45;;;;;;;13.60;6.50;;;;;;;12.03;100.00;101611.84;10528636;28;20032;-73
2021/12/30 17:15:46;;;;;;;20.55;6.45;;;;;;;12.09;100.00;101621.91;10543344;28;20566;-73
2021/12/30 17:20:46;;;;;;;21.02;6.88;;;;;;;12.10;100.00;101616.31;10526889;28;20119;-73
2021/12/30 17:25:47;;;;;;;12.43;4.13;;;;;;;12.09;100.00;101619.22;10510055;28;20059;-73
2021/12/30 17:30:51;;;;;;;25.30;5.25;;;;;;;12.10;100.00;101623.63;10544019;28;20043;-73
2021/12/30 17:35:52;;;;;;;11.27;3.75;;;;;;;12.16;100.00;101631.00;10543358;28;20118;-73
2021/12/30 17:40:52;;;;;;;10.93;4.85;;;;;;;12.24;100.00;101625.44;10544805;28;20151;-72
2021/12/30 17:45:53;;;;;;;7.93;3.97;;;;;;;12.25;100.00;101642.59;10544758;28;20179;-73
2021/12/30 17:50:54;;;;;;;13.52;4.38;;;;;;;12.29;100.00;101646.63;10552030;28;20067;-73
2021/12/30 17:55:55;;;;;;;8.85;6.03;;;;;;;12.32;100.00;101638.09;10554875;28;20038;-73
2021/12/30 18:00:55;;;;;;;14.48;3.78;;;;;;;12.31;100.00;101647.25;10550139;28;20356;-73
2021/12/30 18:05:56;;;;;;;7.97;3.80;;;;;;;12.37;100.00;101653.81;10527617;28;20163;-73
2021/12/30 18:10:57;;;;;;;18.65;6.05;;;;;;;12.42;100.00;101659.53;10543919;28;20348;-73
2021/12/30 18:15:58;;;;;;;30.60;8.73;;;;;;;12.41;100.00;101668.69;10543888;28;20032;-73
2021/12/30 18:20:58;;;;;;;14.02;6.40;;;;;;;12.42;100.00;101667.66;10508043;28;20142;-73
2021/12/30 18:25:59;;;;;;;11.48;5.90;;;;;;;12.45;100.00;101672.72;10542484;28;20036;-73
2021/12/30 18:31:02;;;;;;;23.08;5.57;;;;;;;12.37;100.00;101668.22;10542256;28;20034;-73
2021/12/30 18:36:02;;;;;;;15.02;6.35;;;;;;;12.39;100.00;101676.19;10525540;28;20024;-72
2021/12/30 18:41:03;;;;;;;22.45;6.40;;;;;;;12.37;100.00;101689.13;10542344;28;20110;-73
2021/12/30 18:46:03;;;;;;;16.38;5.75;;;;;;;12.31;100.00;101680.69;10523601;28;20036;-73
2021/12/30 18:51:04;;;;;;;22.73;6.78;;;;;;;12.28;100.00;101672.94;10506474;28;20126;-73
2021/12/30 18:56:05;;;;;;;14.73;5.53;;;;;;;12.31;100.00;101675.25;10522679;28;20036;-73
2021/12/30 19:01:07;;;;;;;13.90;6.40;;;;;;;12.31;100.00;101680.69;10540076;28;20392;-73
2021/12/30 19:06:08;;;;;;;17.08;5.28;;;;;;;12.32;100.00;101687.81;10541606;28;20036;-73
2021/12/30 19:11:08;;;;;;;11.25;6.13;;;;;;;12.33;100.00;101685.94;10541436;28;20395;-73
2021/12/30 19:16:09;;;;;;;12.50;4.22;;;;;;;12.37;100.00;101694.56;10540799;28;20421;-73
2021/12/30 19:21:10;;;;;;;24.20;6.20;;;;;;;12.40;100.00;101694.16;10505774;28;20114;-73
2021/12/30 19:26:13;;;;;;;14.70;4.30;;;;;;;12.41;100.00;101687.69;10522492;28;20444;-73
2021/12/30 19:31:14;;;;;;;18.92;5.32;;;;;;;12.40;100.00;101694.16;10541033;28;20067;-73
2021/12/30 19:36:14;;;;;;;10.35;4.35;;;;;;;12.30;100.00;101695.31;10540396;28;20471;-73
2021/12/30 19:41:15;;;;;;;9.68;4.32;;;;;;;12.26;100.00;101679.59;10538141;28;20029;-72
2021/12/30 19:46:17;;;;;;;13.07;5.57;;;;;;;12.16;100.00;101682.59;10540744;28;20451;-73
2021/12/30 19:51:18;;;;;;;16.77;4.20;;;;;;;12.05;100.00;101674.91;10540368;28;20062;-73
2021/12/30 19:56:20;;;;;;;18.23;5.65;;;;;;;12.13;100.00;101677.56;10521389;28;20040;-73
2021/12/30 20:01:21;;;;;;;14.07;5.07;;;;;;;12.17;100.00;101672.56;10540384;28;20032;-73
2021/12/30 20:06:23;;;;;;;22.05;4.22;;;;;;;12.18;100.00;101674.25;10543459;28;20059;-73
2021/12/30 20:11:24;;;;;;;11.40;4.20;;;;;;;12.27;100.00;101684.81;10547729;28;20074;-73
2021/12/30 20:16:25;;;;;;;7.50;3.65;;;;;;;12.38;100.00;101678.06;10546344;28;20527;-73
2021/12/30 20:21:25;;;;;;;17.67;5.18;;;;;;;12.39;100.00;101666.16;10547989;28;20028;-72
2021/12/30 20:26:30;;;;;;;9.68;3.40;;;;;;;12.25;100.00;101670.59;10547344;28;20055;-73
2021/12/30 20:31:34;;;;;;;6.22;3.35;;;;;;;12.16;100.00;101671.75;10546942;28;20036;-73
2021/12/30 20:36:34;;;;;;;29.05;4.53;;;;;;;12.07;100.00;101675.59;10546718;28;20028;-73
2021/12/30 20:41:35;;;;;;;11.13;3.92;;;;;;;12.01;100.00;101669.03;10545999;28;20040;-73
2021/12/30 20:46:36;;;;;;;22.58;4.20;;;;;;;12.00;100.00;101680.09;10547016;28;20361;-73
2021/12/30 20:51:37;;;;;;;7.38;3.90;;;;;;;11.98;100.00;101674.84;10545935;28;20105;-73
2021/12/30 20:56:38;;;;;;;20.35;6.75;;;;;;;11.95;100.00;101682.50;10528202;28;20032;-73
2021/12/30 21:01:38;;;;;;;10.00;3.80;;;;;;;11.90;100.00;101687.66;10545976;28;20028;-73
2021/12/30 21:06:39;;;;;;;13.80;4.38;;;;;;;11.78;100.00;101698.94;10544916;28;20051;-72
2021/12/30 21:11:39;;;;;;;27.30;4.25;;;;;;;11.75;100.00;101701.19;10527903;28;20032;-72
2021/12/30 21:16:40;;;;;;;8.52;4.18;;;;;;;11.75;100.00;101702.03;10545708;28;20067;-73
2021/12/30 21:21:42;;;;;;;5.88;3.47;;;;;;;11.85;100.00;101710.78;10545805;28;20035;-73
2021/12/30 21:26:42;;;;;;;6.22;3.35;;;;;;;11.93;100.00;101717.13;10543887;28;20043;-73
2021/12/30 21:31:43;;;;;;;16.20;3.78;;;;;;;11.98;100.00;101704.69;10552020;28;20095;-73
2021/12/30 21:36:44;;;;;;;17.33;4.90;;;;;;;12.00;100.00;101709.94;10553754;28;20038;-73
2021/12/30 21:41:44;;;;;;;11.48;3.90;;;;;;;12.00;100.00;101709.94;10550047;28;20036;-73
2021/12/30 21:46:54;;;;;;;13.40;4.20;;;;;;;12.13;100.00;101706.56;10543202;28;20036;-73
2021/12/30 21:51:54;;;;;;;4.40;3.35;;;;;;;12.11;100.00;101695.88;10546692;28;20059;-73
2021/12/30 21:56:55;;;;;;;9.80;4.40;;;;;;;12.16;100.00;101698.91;10509487;28;20039;-73
2021/12/30 22:01:56;;;;;;;5.70;3.40;;;;;;;12.15;100.00;101686.31;10544150;28;20035;-73
2021/12/30 22:06:56;;;;;;;9.35;4.22;;;;;;;12.21;100.00;101701.88;10543181;28;20036;-73
2021/12/30 22:11:57;;;;;;;15.50;3.65;;;;;;;12.28;100.00;101683.81;10543466;28;20070;-73
2021/12/30 22:16:58;;;;;;;14.98;4.35;;;;;;;12.40;100.00;101705.03;10541780;28;20051;-73
2021/12/30 22:21:58;;;;;;;5.97;3.15;;;;;;;12.52;100.00;101696.19;10524846;28;20047;-73
2021/12/30 22:26:58;;;;;;;8.88;3.25;;;;;;;12.61;100.00;101705.09;10509080;28;20129;-73
2021/12/30 22:31:59;;;;;;;14.00;3.40;;;;;;;12.71;100.00;101702.91;10505836;28;20024;-73
2021/12/30 22:37:00;;;;;;;5.65;3.55;;;;;;;12.88;100.00;101695.34;10542439;28;20036;-73
2021/12/30 22:42:00;;;;;;;7.80;3.03;;;;;;;12.95;100.00;101692.69;10523779;28;20032;-73